sensor_id;sensor_type;location;lat;lon;timestamp;pressure;altitude;pressure_sealevel;temperature;humidity
10718;BME280;13513;42.700;23.124;2023-07-31T00:01:35;92713.79;;;19.73;100.00
10718;BME280;13513;42.700;23.124;2023-07-31T00:04:02;92712.08;;;19.77;100.00
10718;BME280;13513;42.700;23.124;2023-07-31T00:06:29;92709.19;;;19.85;100.00
10718;BME280;13513;42.700;23.124;2023-07-31T00:08:57;92710.72;;;19.88;100.00
10718;BME280;13513;42.700;23.124;2023-07-31T00:11:24;92708.63;;;19.96;100.00
10718;BME280;13513;42.700;23.124;2023-07-31T00:13:53;92708.25;;;20.00;100.00
10718;BME280;13513;42.700;23.124;2023-07-31T00:16:21;92704.47;;;20.01;100.00
10718;BME280;13513;42.700;23.124;2023-07-31T00:18:48;92698.87;;;20.00;100.00
10718;BME280;13513;42.700;23.124;2023-07-31T00:21:16;92695.69;;;19.98;100.00
10718;BME280;13513;42.700;23.124;2023-07-31T00:23:43;92693.93;;;20.05;100.00
10718;BME280;13513;42.700;23.124;2023-07-31T00:26:10;92692.09;;;20.03;100.00
10718;BME280;13513;42.700;23.124;2023-07-31T00:28:38;92681.58;;;19.95;100.00
10718;BME280;13513;42.700;23.124;2023-07-31T00:31:05;92662.12;;;20.01;100.00
10718;BME280;13513;42.700;23.124;2023-07-31T00:33:34;92656.78;;;19.90;100.00
10718;BME280;13513;42.700;23.124;2023-07-31T00:36:03;92665.11;;;19.99;100.00
10718;BME280;13513;42.700;23.124;2023-07-31T00:38:30;92663.55;;;20.07;100.00
10718;BME280;13513;42.700;23.124;2023-07-31T00:40:57;92663.62;;;20.04;100.00
10718;BME280;13513;42.700;23.124;2023-07-31T00:43:25;92662.42;;;19.99;100.00
10718;BME280;13513;42.700;23.124;2023-07-31T00:45:53;92660.59;;;19.97;100.00
10718;BME280;13513;42.700;23.124;2023-07-31T00:48:20;92654.19;;;19.96;100.00
10718;BME280;13513;42.700;23.124;2023-07-31T00:50:48;92654.09;;;19.90;100.00
10718;BME280;13513;42.700;23.124;2023-07-31T00:53:16;92652.55;;;19.78;100.00
10718;BME280;13513;42.700;23.124;2023-07-31T00:55:44;92651.63;;;19.71;100.00
10718;BME280;13513;42.700;23.124;2023-07-31T00:58:11;92655.72;;;19.68;100.00
10718;BME280;13513;42.700;23.124;2023-07-31T01:00:39;92656.33;;;19.65;100.00
10718;BME280;13513;42.700;23.124;2023-07-31T01:03:06;92660.40;;;19.74;100.00
10718;BME280;13513;42.700;23.124;2023-07-31T01:05:49;92654.80;;;19.73;100.00
10718;BME280;13513;42.700;23.124;2023-07-31T01:08:18;92652.05;;;19.76;100.00
10718;BME280;13513;42.700;23.124;2023-07-31T01:10:55;92655.55;;;19.85;100.00
10718;BME280;13513;42.700;23.124;2023-07-31T01:13:23;92654.27;;;19.93;100.00
10718;BME280;13513;42.700;23.124;2023-07-31T01:15:50;92653.27;;;20.00;100.00
10718;BME280;13513;42.700;23.124;2023-07-31T01:18:18;92652.66;;;20.03;100.00
10718;BME280;13513;42.700;23.124;2023-07-31T01:20:47;92646.91;;;20.18;100.00
10718;BME280;13513;42.700;23.124;2023-07-31T01:26:12;92643.69;;;20.27;100.00
10718;BME280;13513;42.700;23.124;2023-07-31T01:31:20;92642.53;;;20.11;100.00
10718;BME280;13513;42.700;23.124;2023-07-31T01:33:50;92641.28;;;20.06;100.00
10718;BME280;13513;42.700;23.124;2023-07-31T01:36:18;92638.33;;;19.97;100.00
10718;BME280;13513;42.700;23.124;2023-07-31T01:38:45;92636.02;;;19.93;100.00
10718;BME280;13513;42.700;23.124;2023-07-31T01:41:13;92639.93;;;19.98;100.00
10718;BME280;13513;42.700;23.124;2023-07-31T01:43:40;92637.36;;;19.93;100.00
10718;BME280;13513;42.700;23.124;2023-07-31T01:46:08;92640.95;;;19.80;100.00
10718;BME280;13513;42.700;23.124;2023-07-31T01:48:35;92638.41;;;19.75;100.00
10718;BME280;13513;42.700;23.124;2023-07-31T01:51:03;92635.23;;;19.73;100.00
10718;BME280;13513;42.700;23.124;2023-07-31T01:53:32;92642.43;;;19.75;100.00
10718;BME280;13513;42.700;23.124;2023-07-31T01:55:59;92639.91;;;19.78;100.00
10718;BME280;13513;42.700;23.124;2023-07-31T01:58:27;92641.40;;;19.73;100.00
10718;BME280;13513;42.700;23.124;2023-07-31T02:00:54;92644.55;;;19.75;100.00
10718;BME280;13513;42.700;23.124;2023-07-31T02:03:22;92649.61;;;19.77;100.00
10718;BME280;13513;42.700;23.124;2023-07-31T02:05:50;92648.64;;;19.73;100.00
10718;BME280;13513;42.700;23.124;2023-07-31T02:08:17;92651.02;;;19.74;100.00
10718;BME280;13513;42.700;23.124;2023-07-31T02:10:45;92645.87;;;19.67;100.00
10718;BME280;13513;42.700;23.124;2023-07-31T02:13:12;92642.88;;;19.68;100.00
10718;BME280;13513;42.700;23.124;2023-07-31T02:15:40;92639.23;;;19.64;100.00
10718;BME280;13513;42.700;23.124;2023-07-31T02:18:07;92640.31;;;19.63;100.00
10718;BME280;13513;42.700;23.124;2023-07-31T02:20:35;92640.14;;;19.59;100.00
10718;BME280;13513;42.700;23.124;2023-07-31T02:23:02;92645.44;;;19.62;100.00
10718;BME280;13513;42.700;23.124;2023-07-31T02:25:30;92643.94;;;19.58;100.00
10718;BME280;13513;42.700;23.124;2023-07-31T02:27:57;92647.39;;;19.59;100.00
10718;BME280;13513;42.700;23.124;2023-07-31T02:30:25;92652.64;;;19.64;100.00
10718;BME280;13513;42.700;23.124;2023-07-31T02:32:52;92652.50;;;19.69;100.00
10718;BME280;13513;42.700;23.124;2023-07-31T02:35:20;92655.23;;;19.78;100.00
10718;BME280;13513;42.700;23.124;2023-07-31T02:37:47;92657.58;;;19.79;100.00
10718;BME280;13513;42.700;23.124;2023-07-31T02:40:14;92651.84;;;19.83;100.00
10718;BME280;13513;42.700;23.124;2023-07-31T02:42:42;92657.86;;;19.89;100.00
10718;BME280;13513;42.700;23.124;2023-07-31T02:45:09;92663.65;;;19.93;100.00
10718;BME280;13513;42.700;23.124;2023-07-31T02:47:37;92657.30;;;20.00;100.00
10718;BME280;13513;42.700;23.124;2023-07-31T02:50:05;92659.52;;;20.07;100.00
10718;BME280;13513;42.700;23.124;2023-07-31T02:52:32;92660.28;;;20.10;100.00
10718;BME280;13513;42.700;23.124;2023-07-31T02:55:00;92662.34;;;20.13;100.00
10718;BME280;13513;42.700;23.124;2023-07-31T02:57:27;92663.47;;;20.09;100.00
10718;BME280;13513;42.700;23.124;2023-07-31T02:59:54;92661.85;;;20.00;100.00
10718;BME280;13513;42.700;23.124;2023-07-31T03:02:22;92661.20;;;19.94;100.00
10718;BME280;13513;42.700;23.124;2023-07-31T03:04:49;92659.93;;;19.92;100.00
10718;BME280;13513;42.700;23.124;2023-07-31T03:07:17;92658.97;;;19.88;100.00
10718;BME280;13513;42.700;23.124;2023-07-31T03:09:44;92652.64;;;19.84;100.00
10718;BME280;13513;42.700;23.124;2023-07-31T03:12:12;92651.38;;;19.81;100.00
10718;BME280;13513;42.700;23.124;2023-07-31T03:14:39;92655.63;;;19.82;100.00
10718;BME280;13513;42.700;23.124;2023-07-31T03:17:07;92663.97;;;19.81;100.00
10718;BME280;13513;42.700;23.124;2023-07-31T03:19:35;92664.35;;;19.77;100.00
10718;BME280;13513;42.700;23.124;2023-07-31T03:22:02;92666.63;;;19.72;100.00
10718;BME280;13513;42.700;23.124;2023-07-31T03:24:29;92670.02;;;19.75;100.00
10718;BME280;13513;42.700;23.124;2023-07-31T03:26:57;92673.00;;;19.73;100.00
10718;BME280;13513;42.700;23.124;2023-07-31T03:29:24;92674.67;;;19.72;100.00
10718;BME280;13513;42.700;23.124;2023-07-31T03:31:52;92678.33;;;19.76;100.00
10718;BME280;13513;42.700;23.124;2023-07-31T03:34:19;92675.38;;;19.75;100.00
10718;BME280;13513;42.700;23.124;2023-07-31T03:36:46;92671.78;;;19.80;100.00
10718;BME280;13513;42.700;23.124;2023-07-31T03:39:14;92679.59;;;19.79;100.00
10718;BME280;13513;42.700;23.124;2023-07-31T03:41:41;92688.91;;;19.81;100.00
10718;BME280;13513;42.700;23.124;2023-07-31T03:44:09;92693.30;;;19.88;100.00
10718;BME280;13513;42.700;23.124;2023-07-31T03:46:36;92703.20;;;19.99;100.00
10718;BME280;13513;42.700;23.124;2023-07-31T03:49:03;92698.80;;;20.03;100.00
10718;BME280;13513;42.700;23.124;2023-07-31T03:51:31;92691.64;;;20.09;100.00
10718;BME280;13513;42.700;23.124;2023-07-31T03:53:58;92689.33;;;20.05;100.00
10718;BME280;13513;42.700;23.124;2023-07-31T03:56:26;92690.30;;;20.09;100.00
10718;BME280;13513;42.700;23.124;2023-07-31T03:58:53;92687.84;;;20.13;100.00
10718;BME280;13513;42.700;23.124;2023-07-31T04:01:21;92685.47;;;20.20;100.00
10718;BME280;13513;42.700;23.124;2023-07-31T04:03:48;92695.05;;;20.23;100.00
10718;BME280;13513;42.700;23.124;2023-07-31T04:06:16;92698.89;;;20.20;100.00
10718;BME280;13513;42.700;23.124;2023-07-31T04:08:45;92701.27;;;20.21;100.00
10718;BME280;13513;42.700;23.124;2023-07-31T04:11:13;92698.77;;;20.25;100.00
10718;BME280;13513;42.700;23.124;2023-07-31T04:13:40;92702.58;;;20.32;100.00
10718;BME280;13513;42.700;23.124;2023-07-31T04:16:08;92701.42;;;20.36;100.00
10718;BME280;13513;42.700;23.124;2023-07-31T04:18:35;92706.87;;;20.42;100.00
10718;BME280;13513;42.700;23.124;2023-07-31T04:21:03;92718.48;;;20.48;100.00
10718;BME280;13513;42.700;23.124;2023-07-31T04:23:30;92715.11;;;20.54;100.00
10718;BME280;13513;42.700;23.124;2023-07-31T04:25:58;92719.36;;;20.46;100.00
10718;BME280;13513;42.700;23.124;2023-07-31T04:28:25;92716.15;;;20.55;100.00
10718;BME280;13513;42.700;23.124;2023-07-31T04:30:52;92717.80;;;20.54;100.00
10718;BME280;13513;42.700;23.124;2023-07-31T04:33:20;92722.05;;;20.46;100.00
10718;BME280;13513;42.700;23.124;2023-07-31T04:35:51;92716.80;;;20.61;100.00
10718;BME280;13513;42.700;23.124;2023-07-31T04:38:21;92715.56;;;20.75;100.00
10718;BME280;13513;42.700;23.124;2023-07-31T04:40:48;92724.45;;;20.84;100.00
10718;BME280;13513;42.700;23.124;2023-07-31T04:43:16;92711.23;;;21.05;100.00
10718;BME280;13513;42.700;23.124;2023-07-31T04:45:45;92715.03;;;21.21;100.00
10718;BME280;13513;42.700;23.124;2023-07-31T04:48:16;92713.38;;;21.48;100.00
10718;BME280;13513;42.700;23.124;2023-07-31T04:50:44;92706.94;;;21.63;100.00
10718;BME280;13513;42.700;23.124;2023-07-31T04:53:11;92711.83;;;21.70;100.00
10718;BME280;13513;42.700;23.124;2023-07-31T04:55:39;92713.20;;;21.78;100.00
10718;BME280;13513;42.700;23.124;2023-07-31T04:58:06;92704.02;;;22.11;100.00
10718;BME280;13513;42.700;23.124;2023-07-31T05:00:33;92712.09;;;22.71;100.00
10718;BME280;13513;42.700;23.124;2023-07-31T05:03:01;92707.59;;;23.19;100.00
10718;BME280;13513;42.700;23.124;2023-07-31T05:05:28;92700.93;;;23.72;100.00
10718;BME280;13513;42.700;23.124;2023-07-31T05:07:56;92706.28;;;24.31;96.26
10718;BME280;13513;42.700;23.124;2023-07-31T05:10:23;92707.94;;;24.98;88.65
10718;BME280;13513;42.700;23.124;2023-07-31T05:12:51;92703.09;;;25.61;86.21
10718;BME280;13513;42.700;23.124;2023-07-31T05:15:18;92696.77;;;26.18;77.82
10718;BME280;13513;42.700;23.124;2023-07-31T05:17:45;92697.69;;;26.53;72.46
10718;BME280;13513;42.700;23.124;2023-07-31T05:20:13;92708.54;;;26.69;68.23
10718;BME280;13513;42.700;23.124;2023-07-31T05:22:41;92707.03;;;26.56;72.07
10718;BME280;13513;42.700;23.124;2023-07-31T05:25:08;92711.20;;;26.91;71.98
10718;BME280;13513;42.700;23.124;2023-07-31T05:27:36;92707.34;;;27.23;70.71
10718;BME280;13513;42.700;23.124;2023-07-31T05:30:04;92709.63;;;27.55;64.42
10718;BME280;13513;42.700;23.124;2023-07-31T05:32:31;92711.23;;;27.50;61.28
10718;BME280;13513;42.700;23.124;2023-07-31T05:34:59;92709.59;;;26.96;61.02
10718;BME280;13513;42.700;23.124;2023-07-31T05:37:26;92715.45;;;26.45;65.01
10718;BME280;13513;42.700;23.124;2023-07-31T05:39:54;92711.89;;;26.19;67.06
10718;BME280;13513;42.700;23.124;2023-07-31T05:42:21;92716.51;;;26.19;66.50
10718;BME280;13513;42.700;23.124;2023-07-31T05:44:49;92719.35;;;25.89;68.89
10718;BME280;13513;42.700;23.124;2023-07-31T05:47:16;92712.91;;;25.60;66.68
10718;BME280;13513;42.700;23.124;2023-07-31T05:49:44;92717.59;;;25.69;67.36
10718;BME280;13513;42.700;23.124;2023-07-31T05:52:11;92715.43;;;25.80;68.53
10718;BME280;13513;42.700;23.124;2023-07-31T05:54:39;92712.39;;;25.48;70.33
10718;BME280;13513;42.700;23.124;2023-07-31T05:57:06;92716.80;;;25.74;69.28
10718;BME280;13513;42.700;23.124;2023-07-31T05:59:34;92711.38;;;26.51;65.26
10718;BME280;13513;42.700;23.124;2023-07-31T06:02:01;92719.12;;;26.90;62.90
10718;BME280;13513;42.700;23.124;2023-07-31T06:04:28;92718.14;;;27.13;61.88
10718;BME280;13513;42.700;23.124;2023-07-31T06:06:56;92714.63;;;27.13;61.92
10718;BME280;13513;42.700;23.124;2023-07-31T06:09:24;92720.14;;;27.32;60.82
10718;BME280;13513;42.700;23.124;2023-07-31T06:11:52;92719.50;;;27.73;57.59
10718;BME280;13513;42.700;23.124;2023-07-31T06:14:20;92724.61;;;27.49;57.50
10718;BME280;13513;42.700;23.124;2023-07-31T06:16:47;92722.57;;;27.71;54.41
10718;BME280;13513;42.700;23.124;2023-07-31T06:19:14;92725.86;;;28.37;53.86
10718;BME280;13513;42.700;23.124;2023-07-31T06:21:42;92731.97;;;29.17;51.98
10718;BME280;13513;42.700;23.124;2023-07-31T06:24:10;92724.48;;;29.24;48.80
10718;BME280;13513;42.700;23.124;2023-07-31T06:26:38;92724.69;;;29.25;50.40
10718;BME280;13513;42.700;23.124;2023-07-31T06:29:06;92721.11;;;29.86;48.16
10718;BME280;13513;42.700;23.124;2023-07-31T06:31:33;92723.08;;;30.15;45.98
10718;BME280;13513;42.700;23.124;2023-07-31T06:34:00;92729.42;;;29.96;44.98
10718;BME280;13513;42.700;23.124;2023-07-31T06:36:28;92733.36;;;30.29;43.30
10718;BME280;13513;42.700;23.124;2023-07-31T06:38:55;92720.39;;;30.55;44.17
10718;BME280;13513;42.700;23.124;2023-07-31T06:41:23;92735.48;;;30.79;43.52
10718;BME280;13513;42.700;23.124;2023-07-31T06:43:50;92733.30;;;30.42;42.92
10718;BME280;13513;42.700;23.124;2023-07-31T06:46:18;92735.11;;;29.84;43.75
10718;BME280;13513;42.700;23.124;2023-07-31T06:48:46;92736.83;;;29.18;45.02
10718;BME280;13513;42.700;23.124;2023-07-31T06:51:13;92727.75;;;28.65;46.08
10718;BME280;13513;42.700;23.124;2023-07-31T06:53:40;92725.07;;;28.27;47.90
10718;BME280;13513;42.700;23.124;2023-07-31T06:56:10;92730.52;;;28.18;48.60
10718;BME280;13513;42.700;23.124;2023-07-31T06:58:37;92730.23;;;28.51;49.53
10718;BME280;13513;42.700;23.124;2023-07-31T07:01:04;92728.30;;;29.06;48.22
10718;BME280;13513;42.700;23.124;2023-07-31T07:03:32;92733.44;;;29.37;46.58
10718;BME280;13513;42.700;23.124;2023-07-31T07:06:00;92731.45;;;29.73;46.32
10718;BME280;13513;42.700;23.124;2023-07-31T07:08:27;92707.72;;;30.17;45.37
10718;BME280;13513;42.700;23.124;2023-07-31T07:10:55;92711.83;;;30.20;45.25
10718;BME280;13513;42.700;23.124;2023-07-31T07:13:22;92717.31;;;30.40;42.31
10718;BME280;13513;42.700;23.124;2023-07-31T07:15:50;92717.69;;;30.59;42.00
10718;BME280;13513;42.700;23.124;2023-07-31T07:18:18;92713.55;;;30.52;43.20
10718;BME280;13513;42.700;23.124;2023-07-31T07:20:50;92715.71;;;30.72;41.46
10718;BME280;13513;42.700;23.124;2023-07-31T07:23:18;92713.17;;;30.90;41.92
10718;BME280;13513;42.700;23.124;2023-07-31T07:25:47;92711.39;;;30.51;42.50
10718;BME280;13513;42.700;23.124;2023-07-31T07:28:14;92709.30;;;30.21;43.33
10718;BME280;13513;42.700;23.124;2023-07-31T07:30:42;92711.71;;;30.13;43.94
10718;BME280;13513;42.700;23.124;2023-07-31T07:33:09;92719.05;;;30.22;42.97
10718;BME280;13513;42.700;23.124;2023-07-31T07:35:37;92710.12;;;30.25;44.14
10718;BME280;13513;42.700;23.124;2023-07-31T07:38:05;92715.89;;;30.70;42.85
10718;BME280;13513;42.700;23.124;2023-07-31T07:40:32;92721.86;;;30.82;42.14
10718;BME280;13513;42.700;23.124;2023-07-31T07:43:00;92718.68;;;31.20;41.00
10718;BME280;13513;42.700;23.124;2023-07-31T07:45:27;92720.39;;;30.92;41.13
10718;BME280;13513;42.700;23.124;2023-07-31T07:47:55;92721.03;;;30.42;43.87
10718;BME280;13513;42.700;23.124;2023-07-31T07:50:22;92728.36;;;30.18;43.99
10718;BME280;13513;42.700;23.124;2023-07-31T07:52:49;92726.05;;;30.07;43.10
10718;BME280;13513;42.700;23.124;2023-07-31T07:55:17;92725.31;;;30.59;40.41
10718;BME280;13513;42.700;23.124;2023-07-31T07:57:44;92728.11;;;31.26;40.33
10718;BME280;13513;42.700;23.124;2023-07-31T08:00:13;92732.89;;;31.94;38.14
10718;BME280;13513;42.700;23.124;2023-07-31T08:02:40;92736.29;;;32.55;38.30
10718;BME280;13513;42.700;23.124;2023-07-31T08:05:08;92744.05;;;33.12;36.54
10718;BME280;13513;42.700;23.124;2023-07-31T08:07:35;92734.12;;;33.35;36.21
10718;BME280;13513;42.700;23.124;2023-07-31T08:10:03;92733.51;;;33.53;35.00
10718;BME280;13513;42.700;23.124;2023-07-31T08:12:31;92728.41;;;33.23;34.79
10718;BME280;13513;42.700;23.124;2023-07-31T08:14:58;92733.00;;;32.66;36.50
10718;BME280;13513;42.700;23.124;2023-07-31T08:17:26;92725.06;;;32.92;35.69
10718;BME280;13513;42.700;23.124;2023-07-31T08:19:53;92730.52;;;32.85;35.47
10718;BME280;13513;42.700;23.124;2023-07-31T08:22:22;92728.54;;;32.27;36.80
10718;BME280;13513;42.700;23.124;2023-07-31T08:24:50;92734.70;;;32.06;36.84
10718;BME280;13513;42.700;23.124;2023-07-31T08:27:17;92734.34;;;32.11;37.25
10718;BME280;13513;42.700;23.124;2023-07-31T08:29:44;92738.22;;;31.46;37.34
10718;BME280;13513;42.700;23.124;2023-07-31T08:32:12;92728.59;;;31.39;39.12
10718;BME280;13513;42.700;23.124;2023-07-31T08:34:39;92733.47;;;32.31;36.34
10718;BME280;13513;42.700;23.124;2023-07-31T08:37:08;92735.06;;;33.22;35.31
10718;BME280;13513;42.700;23.124;2023-07-31T08:39:35;92738.37;;;33.95;33.95
10718;BME280;13513;42.700;23.124;2023-07-31T08:42:07;92737.02;;;34.95;33.79
10718;BME280;13513;42.700;23.124;2023-07-31T08:44:34;92736.81;;;35.96;30.36
10718;BME280;13513;42.700;23.124;2023-07-31T08:47:02;92729.63;;;36.77;29.27
10718;BME280;13513;42.700;23.124;2023-07-31T08:49:31;92730.20;;;37.06;29.25
10718;BME280;13513;42.700;23.124;2023-07-31T08:51:58;92726.84;;;36.47;29.84
10718;BME280;13513;42.700;23.124;2023-07-31T08:54:26;92724.56;;;35.38;30.69
10718;BME280;13513;42.700;23.124;2023-07-31T08:56:57;92729.28;;;35.60;30.62
10718;BME280;13513;42.700;23.124;2023-07-31T08:59:31;92733.48;;;35.71;31.84
10718;BME280;13513;42.700;23.124;2023-07-31T09:02:05;92735.18;;;36.39;29.99
10718;BME280;13513;42.700;23.124;2023-07-31T09:04:32;92724.63;;;37.63;29.13
10718;BME280;13513;42.700;23.124;2023-07-31T09:07:04;92731.00;;;36.92;28.45
10718;BME280;13513;42.700;23.124;2023-07-31T09:09:32;92725.09;;;36.29;29.37
10718;BME280;13513;42.700;23.124;2023-07-31T09:11:59;92727.16;;;36.37;30.40
10718;BME280;13513;42.700;23.124;2023-07-31T09:14:28;92719.03;;;37.43;27.76
10718;BME280;13513;42.700;23.124;2023-07-31T09:16:57;92718.09;;;38.30;27.57
10718;BME280;13513;42.700;23.124;2023-07-31T09:19:36;92713.48;;;39.53;26.11
10718;BME280;13513;42.700;23.124;2023-07-31T09:22:06;92717.88;;;40.23;24.54
10718;BME280;13513;42.700;23.124;2023-07-31T09:24:35;92720.19;;;41.02;24.20
10718;BME280;13513;42.700;23.124;2023-07-31T09:27:02;92712.13;;;41.58;23.01
10718;BME280;13513;42.700;23.124;2023-07-31T09:29:30;92708.56;;;40.66;25.22
10718;BME280;13513;42.700;23.124;2023-07-31T09:31:57;92711.62;;;38.68;25.92
10718;BME280;13513;42.700;23.124;2023-07-31T09:34:38;92713.58;;;36.98;28.68
10718;BME280;13513;42.700;23.124;2023-07-31T09:37:06;92708.14;;;35.72;30.34
10718;BME280;13513;42.700;23.124;2023-07-31T09:39:45;92711.00;;;34.74;31.52
10718;BME280;13513;42.700;23.124;2023-07-31T09:42:04;92706.70;;;34.27;32.67
10718;BME280;13513;42.700;23.124;2023-07-31T09:44:39;92703.55;;;33.64;32.91
10718;BME280;13513;42.700;23.124;2023-07-31T09:47:10;92703.67;;;32.70;33.00
10718;BME280;13513;42.700;23.124;2023-07-31T09:49:36;92706.46;;;31.81;35.61
10718;BME280;13513;42.700;23.124;2023-07-31T09:52:07;92710.22;;;31.32;34.80
10718;BME280;13513;42.700;23.124;2023-07-31T09:54:35;92707.67;;;30.50;36.65
10718;BME280;13513;42.700;23.124;2023-07-31T09:57:03;92707.67;;;30.00;37.78
10718;BME280;13513;42.700;23.124;2023-07-31T09:59:30;92702.84;;;29.86;39.30
10718;BME280;13513;42.700;23.124;2023-07-31T10:01:58;92707.42;;;30.12;39.95
10718;BME280;13513;42.700;23.124;2023-07-31T10:04:27;92691.58;;;30.58;39.03
10718;BME280;13513;42.700;23.124;2023-07-31T10:06:55;92681.38;;;30.91;39.21
10718;BME280;13513;42.700;23.124;2023-07-31T10:09:25;92685.06;;;31.13;38.36
10718;BME280;13513;42.700;23.124;2023-07-31T10:11:59;92685.53;;;31.22;39.88
10718;BME280;13513;42.700;23.124;2023-07-31T10:14:26;92690.83;;;31.51;38.13
10718;BME280;13513;42.700;23.124;2023-07-31T10:16:56;92689.11;;;31.29;38.21
10718;BME280;13513;42.700;23.124;2023-07-31T10:19:24;92689.66;;;30.62;37.80
10718;BME280;13513;42.700;23.124;2023-07-31T10:21:54;92694.20;;;30.27;38.48
10718;BME280;13513;42.700;23.124;2023-07-31T10:24:24;92690.95;;;30.02;38.34
10718;BME280;13513;42.700;23.124;2023-07-31T10:26:52;92681.41;;;30.18;41.30
10718;BME280;13513;42.700;23.124;2023-07-31T10:29:21;92670.96;;;30.24;40.03
10718;BME280;13513;42.700;23.124;2023-07-31T10:31:51;92676.55;;;30.34;37.61
10718;BME280;13513;42.700;23.124;2023-07-31T10:34:19;92674.05;;;30.22;39.99
10718;BME280;13513;42.700;23.124;2023-07-31T10:36:46;92671.39;;;30.46;39.77
10718;BME280;13513;42.700;23.124;2023-07-31T10:39:35;92678.73;;;30.58;38.88
10718;BME280;13513;42.700;23.124;2023-07-31T10:42:12;92668.86;;;30.47;39.28
10718;BME280;13513;42.700;23.124;2023-07-31T10:44:46;92672.58;;;30.48;36.75
10718;BME280;13513;42.700;23.124;2023-07-31T10:47:15;92670.56;;;30.22;38.24
10718;BME280;13513;42.700;23.124;2023-07-31T10:49:45;92667.97;;;30.36;39.36
10718;BME280;13513;42.700;23.124;2023-07-31T10:52:15;92662.11;;;30.54;37.46
10718;BME280;13513;42.700;23.124;2023-07-31T10:54:43;92663.30;;;30.73;39.53
10718;BME280;13513;42.700;23.124;2023-07-31T10:57:21;92668.52;;;30.92;37.55
10718;BME280;13513;42.700;23.124;2023-07-31T10:59:50;92656.00;;;31.11;36.29
10718;BME280;13513;42.700;23.124;2023-07-31T11:02:25;92657.70;;;31.26;36.07
10718;BME280;13513;42.700;23.124;2023-07-31T11:05:06;92652.10;;;31.35;39.03
10718;BME280;13513;42.700;23.124;2023-07-31T11:07:49;92651.78;;;31.47;37.26
10718;BME280;13513;42.700;23.124;2023-07-31T11:10:18;92652.28;;;31.09;37.04
10718;BME280;13513;42.700;23.124;2023-07-31T11:12:46;92657.84;;;30.73;37.42
10718;BME280;13513;42.700;23.124;2023-07-31T11:15:13;92652.84;;;31.05;39.29
10718;BME280;13513;42.700;23.124;2023-07-31T11:17:41;92646.92;;;31.50;37.65
10718;BME280;13513;42.700;23.124;2023-07-31T11:20:09;92646.29;;;31.78;36.73
10718;BME280;13513;42.700;23.124;2023-07-31T11:22:36;92647.31;;;31.86;36.21
10718;BME280;13513;42.700;23.124;2023-07-31T11:25:04;92648.34;;;31.98;36.69
10718;BME280;13513;42.700;23.124;2023-07-31T11:27:38;92649.94;;;31.72;35.92
10718;BME280;13513;42.700;23.124;2023-07-31T11:30:02;92652.01;;;31.52;36.44
10718;BME280;13513;42.700;23.124;2023-07-31T11:32:30;92657.34;;;31.68;35.97
10718;BME280;13513;42.700;23.124;2023-07-31T11:34:57;92653.92;;;31.78;36.44
10718;BME280;13513;42.700;23.124;2023-07-31T11:37:48;92662.20;;;31.99;35.98
10718;BME280;13513;42.700;23.124;2023-07-31T11:40:02;92656.56;;;32.02;35.43
10718;BME280;13513;42.700;23.124;2023-07-31T11:42:29;92656.69;;;31.85;36.03
10718;BME280;13513;42.700;23.124;2023-07-31T11:44:57;92652.82;;;31.63;35.93
10718;BME280;13513;42.700;23.124;2023-07-31T11:47:26;92654.46;;;31.40;38.74
10718;BME280;13513;42.700;23.124;2023-07-31T11:49:53;92650.27;;;31.57;37.87
10718;BME280;13513;42.700;23.124;2023-07-31T11:52:22;92638.55;;;31.56;37.17
10718;BME280;13513;42.700;23.124;2023-07-31T11:54:50;92638.73;;;31.54;37.35
10718;BME280;13513;42.700;23.124;2023-07-31T11:57:19;92638.92;;;31.55;37.54
10718;BME280;13513;42.700;23.124;2023-07-31T11:59:47;92638.02;;;31.64;37.21
10718;BME280;13513;42.700;23.124;2023-07-31T12:02:14;92635.29;;;31.67;35.58
10718;BME280;13513;42.700;23.124;2023-07-31T12:04:43;92626.05;;;31.89;38.51
10718;BME280;13513;42.700;23.124;2023-07-31T12:07:10;92626.88;;;32.04;37.30
10718;BME280;13513;42.700;23.124;2023-07-31T12:09:50;92627.11;;;32.15;37.78
10718;BME280;13513;42.700;23.124;2023-07-31T12:12:11;92620.48;;;32.27;37.03
10718;BME280;13513;42.700;23.124;2023-07-31T12:14:42;92625.91;;;32.13;33.96
10718;BME280;13513;42.700;23.124;2023-07-31T12:17:09;92616.77;;;31.70;35.73
10718;BME280;13513;42.700;23.124;2023-07-31T12:19:37;92624.36;;;31.06;35.26
10718;BME280;13513;42.700;23.124;2023-07-31T12:22:15;92624.16;;;30.78;35.83
10718;BME280;13513;42.700;23.124;2023-07-31T12:24:43;92622.36;;;30.73;35.53
10718;BME280;13513;42.700;23.124;2023-07-31T12:27:13;92623.67;;;30.89;36.92
10718;BME280;13513;42.700;23.124;2023-07-31T12:29:42;92619.38;;;31.15;36.47
10718;BME280;13513;42.700;23.124;2023-07-31T12:32:21;92619.77;;;31.17;36.08
10718;BME280;13513;42.700;23.124;2023-07-31T12:34:49;92615.60;;;31.07;36.19
10718;BME280;13513;42.700;23.124;2023-07-31T12:37:16;92612.26;;;31.04;37.67
10718;BME280;13513;42.700;23.124;2023-07-31T12:39:44;92614.69;;;30.65;37.32
10718;BME280;13513;42.700;23.124;2023-07-31T12:42:11;92622.20;;;30.59;39.58
10718;BME280;13513;42.700;23.124;2023-07-31T12:44:39;92620.95;;;30.49;37.63
10718;BME280;13513;42.700;23.124;2023-07-31T12:47:06;92612.90;;;30.63;38.85
10718;BME280;13513;42.700;23.124;2023-07-31T12:49:33;92614.43;;;31.08;36.88
10718;BME280;13513;42.700;23.124;2023-07-31T12:52:01;92607.27;;;31.47;36.05
10718;BME280;13513;42.700;23.124;2023-07-31T12:54:28;92607.27;;;31.81;36.58
10718;BME280;13513;42.700;23.124;2023-07-31T12:56:56;92596.77;;;31.97;36.82